Language: 


Des rapports , des résumés tant et plus, au choix de chacun....


Données Historiques de Météogheer
Journalier Rapport pour Janvier 12, 2017 Unitée:  Les deux    Impériale   Métrique
Suivant Jour »
Journalier Hebdomadaire Mensuel Annuel Sur mesure
  Max: Min: Moyenne:
Température: 45.1 °F /  7.3 °C 32 °F /  0.0 °C 41.5 °F /  5.3 °C
Point de rosée: 43.3 °F /  6.3 °C 33.4 °F /  0.8 °C 38.7 °F /  3.7 °C
Humidité: 98% 0% 89%
Vent: 21.5mph /  34.6km/h - 6.7mph /  10.8km/h
Rafales: 26.6mph /  42.8km/h - -
Vent- - SW
Pression: 29.9 in /  1014.1 hPa 0 in /  0.0 hPa -
Pluie: 0.53 in /  13.5 mm    
Historical Graphs
 
 
Données tabulaires pour Janvier 12, 2017
Heure Température Point de rosée Pression Vent Vent Rafales Humidité Pluie Taux (Horaire) Conditions
00:02 41.9 °F /  5.5 °C 34 °F /  1.1 °C 29.9in /  1013.1hPa WNW 6.9mph /  11.1km/h 8.7mph /  14.0km/h 73% 0in /  0.0mm
00:07 41.7 °F /  5.4 °C 34 °F /  1.1 °C 29.9in /  1013.1hPa West 5.6mph /  9.0km/h 8.5mph /  13.7km/h 74% 0in /  0.0mm
00:12 41.7 °F /  5.4 °C 34 °F /  1.1 °C 29.9in /  1013.1hPa West 3.1mph /  5.0km/h 8.5mph /  13.7km/h 74% 0in /  0.0mm
00:17 41.7 °F /  5.4 °C 34 °F /  1.1 °C 29.9in /  1013.1hPa West 7.4mph /  11.9km/h 8.5mph /  13.7km/h 74% 0in /  0.0mm
00:22 41.9 °F /  5.5 °C 34.2 °F /  1.2 °C 29.9in /  1014.1hPa NW 5.8mph /  9.3km/h 10.1mph /  16.3km/h 74% 0in /  0.0mm
00:27 42.1 °F /  5.6 °C 34.3 °F /  1.3 °C 29.9in /  1014.1hPa West 10.5mph /  16.9km/h 10.5mph /  16.9km/h 74% 0in /  0.0mm
00:32 42.1 °F /  5.6 °C 34.3 °F /  1.3 °C 29.9in /  1014.1hPa WNW 5.8mph /  9.3km/h 12.8mph /  20.6km/h 74% 0in /  0.0mm
00:37 42.1 °F /  5.6 °C 34.3 °F /  1.3 °C 29.9in /  1014.1hPa West 8.7mph /  14.0km/h 13mph /  20.9km/h 74% 0in /  0.0mm
00:42 42.1 °F /  5.6 °C 34.3 °F /  1.3 °C 29.9in /  1014.1hPa West 8.5mph /  13.7km/h 13mph /  20.9km/h 74% 0in /  0.0mm
00:47 42.1 °F /  5.6 °C 34.3 °F /  1.3 °C 29.9in /  1014.1hPa West 8.9mph /  14.3km/h 13.2mph /  21.2km/h 74% 0in /  0.0mm
00:52 42.1 °F /  5.6 °C 34.3 °F /  1.3 °C 29.9in /  1014.1hPa WSW 6.5mph /  10.5km/h 13.2mph /  21.2km/h 74% 0in /  0.0mm
00:57 42.1 °F /  5.6 °C 34.3 °F /  1.3 °C 29.9in /  1014.1hPa West 10.3mph /  16.6km/h 10.7mph /  17.2km/h 74% 0in /  0.0mm
01:02 41.9 °F /  5.5 °C 34.2 °F /  1.2 °C 29.9in /  1014.1hPa WSW 5.4mph /  8.7km/h 10.5mph /  16.9km/h 74% 0in /  0.0mm
01:07 41.9 °F /  5.5 °C 34.5 °F /  1.4 °C 29.9in /  1014.1hPa West 8.5mph /  13.7km/h 10.7mph /  17.2km/h 75% 0in /  0.0mm
01:12 41.9 °F /  5.5 °C 34.5 °F /  1.4 °C 29.9in /  1014.1hPa West 5.8mph /  9.3km/h 11mph /  17.7km/h 75% 0in /  0.0mm
01:17 41.9 °F /  5.5 °C 34.5 °F /  1.4 °C 29.9in /  1014.1hPa WSW 6mph /  9.7km/h 11mph /  17.7km/h 75% 0in /  0.0mm
01:22 41.9 °F /  5.5 °C 34.5 °F /  1.4 °C 29.9in /  1014.1hPa WSW 5.6mph /  9.0km/h 10.1mph /  16.3km/h 75% 0in /  0.0mm
01:27 41.9 °F /  5.5 °C 34.9 °F /  1.6 °C 29.9in /  1014.1hPa WSW 7.6mph /  12.2km/h 12.8mph /  20.6km/h 76% 0in /  0.0mm
01:32 41.9 °F /  5.5 °C 34.9 °F /  1.6 °C 29.9in /  1014.1hPa West 6.7mph /  10.8km/h 12.8mph /  20.6km/h 76% 0in /  0.0mm
01:37 41.9 °F /  5.5 °C 34.9 °F /  1.6 °C 29.9in /  1014.1hPa WSW 5.4mph /  8.7km/h 12.3mph /  19.8km/h 76% 0in /  0.0mm
01:42 41.9 °F /  5.5 °C 34.9 °F /  1.6 °C 29.9in /  1014.1hPa WSW 6.3mph /  10.1km/h 12.3mph /  19.8km/h 76% 0in /  0.0mm
01:47 41.9 °F /  5.5 °C 34.9 °F /  1.6 °C 29.9in /  1014.1hPa SSW 8.5mph /  13.7km/h 11mph /  17.7km/h 76% 0in /  0.0mm
01:52 42.1 °F /  5.6 °C 35.1 °F /  1.7 °C 29.9in /  1014.1hPa WSW 7.6mph /  12.2km/h 11mph /  17.7km/h 76% 0in /  0.0mm
01:57 42.1 °F /  5.6 °C 35.1 °F /  1.7 °C 29.9in /  1014.1hPa West 9.8mph /  15.8km/h 10.3mph /  16.6km/h 76% 0in /  0.0mm
02:02 32 °F /  0.0 °C 35.1 °F /  1.7 °C 0in /  0.0hPa WSW 5.4mph /  8.7km/h 8.7mph /  14.0km/h 0% 0in /  0.0mm
02:07 41.5 °F /  5.3 °C 34.5 °F /  1.4 °C 29.9in /  1014.1hPa WSW 3.8mph /  6.1km/h 6mph /  9.7km/h 76% 0in /  0.0mm
02:12 41.2 °F /  5.1 °C 34.5 °F /  1.4 °C 29.9in /  1014.1hPa WSW 4.3mph /  6.9km/h 6.5mph /  10.5km/h 77% 0in /  0.0mm
02:17 41 °F /  5.0 °C 34.3 °F /  1.3 °C 29.9in /  1014.1hPa West 4.5mph /  7.2km/h 6.5mph /  10.5km/h 77% 0in /  0.0mm
02:22 40.8 °F /  4.9 °C 34.5 °F /  1.4 °C 29.9in /  1014.1hPa WSW 5.8mph /  9.3km/h 5.8mph /  9.3km/h 78% 0in /  0.0mm
02:27 40.6 °F /  4.8 °C 34.5 °F /  1.4 °C 29.9in /  1014.1hPa WSW 5.8mph /  9.3km/h 6mph /  9.7km/h 79% 0in /  0.0mm
02:32 40.5 °F /  4.7 °C 34.9 °F /  1.6 °C 29.9in /  1014.1hPa WSW 5.4mph /  8.7km/h 7.2mph /  11.6km/h 80% 0in /  0.0mm
02:37 40.6 °F /  4.8 °C 35.2 °F /  1.8 °C 29.9in /  1014.1hPa West 5.6mph /  9.0km/h 7.4mph /  11.9km/h 81% 0in /  0.0mm
02:42 40.6 °F /  4.8 °C 35.2 °F /  1.8 °C 29.9in /  1014.1hPa WSW 5.8mph /  9.3km/h 7.4mph /  11.9km/h 81% 0in /  0.0mm
02:47 40.6 °F /  4.8 °C 35.2 °F /  1.8 °C 29.9in /  1014.1hPa West 4.7mph /  7.6km/h 7.4mph /  11.9km/h 81% 0in /  0.0mm
02:52 40.5 °F /  4.7 °C 35.1 °F /  1.7 °C 29.9in /  1014.1hPa WSW 5.6mph /  9.0km/h 6.5mph /  10.5km/h 81% 0in /  0.0mm
02:57 40.5 °F /  4.7 °C 35.4 °F /  1.9 °C 29.9in /  1014.1hPa West 5.8mph /  9.3km/h 9.8mph /  15.8km/h 82% 0in /  0.0mm
03:02 40.5 °F /  4.7 °C 35.4 °F /  1.9 °C 29.9in /  1014.1hPa WSW 5.4mph /  8.7km/h 9.8mph /  15.8km/h 82% 0in /  0.0mm
03:07 40.5 °F /  4.7 °C 35.4 °F /  1.9 °C 29.9in /  1014.1hPa West 6.3mph /  10.1km/h 8.1mph /  13.0km/h 82% 0in /  0.0mm
03:12 40.3 °F /  4.6 °C 35.2 °F /  1.8 °C 29.9in /  1014.1hPa WSW 3.8mph /  6.1km/h 8.1mph /  13.0km/h 82% 0in /  0.0mm
03:17 40.1 °F /  4.5 °C 34.9 °F /  1.6 °C 29.9in /  1014.1hPa WSW 6.3mph /  10.1km/h 7.2mph /  11.6km/h 81% 0in /  0.0mm
03:22 39.7 °F /  4.3 °C 34.3 °F /  1.3 °C 29.9in /  1014.1hPa WSW 4.3mph /  6.9km/h 6.3mph /  10.1km/h 81% 0in /  0.0mm
03:27 39.7 °F /  4.3 °C 34.3 °F /  1.3 °C 29.9in /  1014.1hPa West 6.3mph /  10.1km/h 6.3mph /  10.1km/h 81% 0in /  0.0mm
03:32 39.6 °F /  4.2 °C 34.5 °F /  1.4 °C 29.9in /  1014.1hPa WSW 4mph /  6.4km/h 6.3mph /  10.1km/h 82% 0in /  0.0mm
03:37 39.2 °F /  4.0 °C 34.2 °F /  1.2 °C 29.9in /  1014.1hPa WSW 4.9mph /  7.9km/h 6mph /  9.7km/h 82% 0in /  0.0mm
03:42 39 °F /  3.9 °C 34 °F /  1.1 °C 29.9in /  1014.1hPa WSW 4.3mph /  6.9km/h 5.6mph /  9.0km/h 82% 0in /  0.0mm
03:47 39.2 °F /  4.0 °C 34.5 °F /  1.4 °C 29.9in /  1014.1hPa WSW 5.8mph /  9.3km/h 6mph /  9.7km/h 83% 0in /  0.0mm
03:52 39.2 °F /  4.0 °C 34.9 °F /  1.6 °C 29.9in /  1014.1hPa West 4.9mph /  7.9km/h 7.2mph /  11.6km/h 84% 0in /  0.0mm
03:57 39.4 °F /  4.1 °C 35.1 °F /  1.7 °C 29.9in /  1014.1hPa WSW 5.4mph /  8.7km/h 8.7mph /  14.0km/h 84% 0in /  0.0mm
04:02 39.4 °F /  4.1 °C 35.2 °F /  1.8 °C 29.9in /  1014.1hPa WSW 6.9mph /  11.1km/h 8.7mph /  14.0km/h 85% 0in /  0.0mm
04:07 39.6 °F /  4.2 °C 35.4 °F /  1.9 °C 29.9in /  1014.1hPa WSW 5.8mph /  9.3km/h 7.6mph /  12.2km/h 85% 0in /  0.0mm
04:12 39.7 °F /  4.3 °C 35.6 °F /  2.0 °C 29.9in /  1014.1hPa WSW 6.5mph /  10.5km/h 7.4mph /  11.9km/h 85% 0in /  0.0mm
04:17 39.9 °F /  4.4 °C 36.1 °F /  2.3 °C 29.9in /  1014.1hPa WSW 6.3mph /  10.1km/h 8.9mph /  14.3km/h 86% 0in /  0.0mm
04:22 40.1 °F /  4.5 °C 36.3 °F /  2.4 °C 29.9in /  1013.1hPa WSW 7.4mph /  11.9km/h 8.9mph /  14.3km/h 86% 0in /  0.0mm
04:27 40.3 °F /  4.6 °C 36.3 °F /  2.4 °C 29.9in /  1013.1hPa WSW 4.9mph /  7.9km/h 7.8mph /  12.6km/h 86% 0in /  0.0mm
04:32 40.1 °F /  4.5 °C 36.3 °F /  2.4 °C 29.9in /  1013.1hPa WSW 5.4mph /  8.7km/h 7.8mph /  12.6km/h 86% 0in /  0.0mm
04:37 40.1 °F /  4.5 °C 36 °F /  2.2 °C 29.9in /  1013.1hPa WSW 5.6mph /  9.0km/h 7.4mph /  11.9km/h 85% 0in /  0.0mm
04:42 40.1 °F /  4.5 °C 36 °F /  2.2 °C 29.9in /  1013.1hPa WSW 8.1mph /  13.0km/h 8.1mph /  13.0km/h 85% 0in /  0.0mm
04:47 40.1 °F /  4.5 °C 36.3 °F /  2.4 °C 29.9in /  1013.1hPa WSW 7.8mph /  12.6km/h 8.5mph /  13.7km/h 86% 0in /  0.0mm
04:52 40.5 °F /  4.7 °C 36.7 °F /  2.6 °C 29.9in /  1013.1hPa West 8.1mph /  13.0km/h 8.7mph /  14.0km/h 86% 0in /  0.0mm
04:57 40.5 °F /  4.7 °C 36.7 °F /  2.6 °C 29.9in /  1013.1hPa West 6.3mph /  10.1km/h 10.5mph /  16.9km/h 86% 0in /  0.0mm
05:02 40.6 °F /  4.8 °C 36.5 °F /  2.5 °C 29.9in /  1013.1hPa WSW 8.7mph /  14.0km/h 10.5mph /  16.9km/h 85% 0in /  0.0mm
05:07 40.6 °F /  4.8 °C 36.5 °F /  2.5 °C 29.9in /  1013.1hPa West 6mph /  9.7km/h 8.7mph /  14.0km/h 85% 0in /  0.0mm
05:12 40.5 °F /  4.7 °C 36 °F /  2.2 °C 29.9in /  1013.1hPa West 6mph /  9.7km/h 8.7mph /  14.0km/h 84% 0in /  0.0mm
05:17 40.3 °F /  4.6 °C 35.8 °F /  2.1 °C 29.9in /  1013.1hPa West 7.4mph /  11.9km/h 8.5mph /  13.7km/h 84% 0in /  0.0mm
05:22 40.3 °F /  4.6 °C 35.8 °F /  2.1 °C 29.9in /  1012.1hPa WSW 7.6mph /  12.2km/h 8.7mph /  14.0km/h 84% 0in /  0.0mm
05:27 40.1 °F /  4.5 °C 35.8 °F /  2.1 °C 29.9in /  1012.1hPa WSW 8.1mph /  13.0km/h 8.7mph /  14.0km/h 84% 0in /  0.0mm
05:32 39.9 °F /  4.4 °C 35.8 °F /  2.1 °C 29.9in /  1012.1hPa WSW 6mph /  9.7km/h 8.1mph /  13.0km/h 85% 0in /  0.0mm
05:37 39.9 °F /  4.4 °C 35.8 °F /  2.1 °C 29.9in /  1013.1hPa WSW 5.6mph /  9.0km/h 8.9mph /  14.3km/h 85% 0in /  0.0mm
05:42 40.1 °F /  4.5 °C 36.3 °F /  2.4 °C 29.9in /  1013.1hPa WSW 5.4mph /  8.7km/h 8.9mph /  14.3km/h 86% 0in /  0.0mm
05:47 40.1 °F /  4.5 °C 36.3 °F /  2.4 °C 29.9in /  1013.1hPa West 7.4mph /  11.9km/h 9.6mph /  15.4km/h 86% 0in /  0.0mm
05:52 40.3 °F /  4.6 °C 36.3 °F /  2.4 °C 29.9in /  1012.1hPa WSW 5.8mph /  9.3km/h 9.6mph /  15.4km/h 86% 0in /  0.0mm
05:57 40.3 °F /  4.6 °C 36.3 °F /  2.4 °C 29.9in /  1012.1hPa WSW 5.8mph /  9.3km/h 8.1mph /  13.0km/h 86% 0in /  0.0mm
06:02 40.3 °F /  4.6 °C 36.3 °F /  2.4 °C 29.9in /  1012.1hPa WSW 5.8mph /  9.3km/h 8.1mph /  13.0km/h 86% 0in /  0.0mm
06:08 40.1 °F /  4.5 °C 36.3 °F /  2.4 °C 29.9in /  1013.1hPa WSW 5.8mph /  9.3km/h 8.1mph /  13.0km/h 86% 0in /  0.0mm
06:12 40.1 °F /  4.5 °C 36.7 °F /  2.6 °C 29.9in /  1013.1hPa WSW 7.6mph /  12.2km/h 7.6mph /  12.2km/h 87% 0in /  0.0mm
06:17 40.3 °F /  4.6 °C 36.7 °F /  2.6 °C 29.9in /  1013.1hPa WSW 6.3mph /  10.1km/h 8.1mph /  13.0km/h 87% 0in /  0.0mm
06:22 40.3 °F /  4.6 °C 36.7 °F /  2.6 °C 29.9in /  1013.1hPa WSW 4mph /  6.4km/h 8.1mph /  13.0km/h 87% 0in /  0.0mm
06:27 40.1 °F /  4.5 °C 36.7 °F /  2.6 °C 29.9in /  1013.1hPa WSW 4mph /  6.4km/h 5.6mph /  9.0km/h 87% 0in /  0.0mm
06:32 39.7 °F /  4.3 °C 36.1 °F /  2.3 °C 29.9in /  1013.1hPa WSW 4mph /  6.4km/h 5.8mph /  9.3km/h 87% 0in /  0.0mm
06:37 39.7 °F /  4.3 °C 36.1 °F /  2.3 °C 29.9in /  1013.1hPa WSW 5.6mph /  9.0km/h 5.8mph /  9.3km/h 87% 0in /  0.0mm
06:38 39.7 °F /  4.3 °C 36.1 °F /  2.3 °C 29.9in /  1013.1hPa WSW 5.8mph /  9.3km/h 5.8mph /  9.3km/h 87% 0in /  0.0mm
06:43 39.7 °F /  4.3 °C 36.1 °F /  2.3 °C 29.9in /  1013.1hPa WSW 3.8mph /  6.1km/h 5.8mph /  9.3km/h 87% 0in /  0.0mm
06:48 39.7 °F /  4.3 °C 36.1 °F /  2.3 °C 29.9in /  1013.1hPa WSW 4.5mph /  7.2km/h 5.8mph /  9.3km/h 87% 0in /  0.0mm
06:53 39.9 °F /  4.4 °C 36.7 °F /  2.6 °C 29.9in /  1013.1hPa WSW 5.8mph /  9.3km/h 6mph /  9.7km/h 88% 0in /  0.0mm
06:58 40.1 °F /  4.5 °C 36.9 °F /  2.7 °C 29.9in /  1013.1hPa WSW 6.3mph /  10.1km/h 6.5mph /  10.5km/h 88% 0in /  0.0mm
07:03 40.3 °F /  4.6 °C 37 °F /  2.8 °C 29.9in /  1013.1hPa SW 5.4mph /  8.7km/h 7.4mph /  11.9km/h 88% 0in /  0.0mm
07:08 40.3 °F /  4.6 °C 37.2 °F /  2.9 °C 29.9in /  1012.1hPa SW 6mph /  9.7km/h 7.6mph /  12.2km/h 89% 0in /  0.0mm
07:13 40.6 °F /  4.8 °C 37.8 °F /  3.2 °C 29.9in /  1012.1hPa SSW 6mph /  9.7km/h 7.6mph /  12.2km/h 89% 0in /  0.0mm
07:18 40.8 °F /  4.9 °C 37.8 °F /  3.2 °C 29.9in /  1012.1hPa WSW 4mph /  6.4km/h 7.6mph /  12.2km/h 89% 0in /  0.0mm
07:23 40.6 °F /  4.8 °C 37.8 °F /  3.2 °C 29.9in /  1012.1hPa WSW 5.6mph /  9.0km/h 6mph /  9.7km/h 89% 0in /  0.0mm
07:28 40.5 °F /  4.7 °C 37.2 °F /  2.9 °C 29.9in /  1012.1hPa WSW 4.3mph /  6.9km/h 5.8mph /  9.3km/h 88% 0in /  0.0mm
07:33 40.3 °F /  4.6 °C 37 °F /  2.8 °C 29.9in /  1012.1hPa SW 4.9mph /  7.9km/h 5.8mph /  9.3km/h 88% 0in /  0.0mm
07:38 40.3 °F /  4.6 °C 37.2 °F /  2.9 °C 29.9in /  1012.1hPa WSW 5.4mph /  8.7km/h 6mph /  9.7km/h 89% 0in /  0.0mm
07:43 40.5 °F /  4.7 °C 37.6 °F /  3.1 °C 29.9in /  1012.1hPa SSW 7.2mph /  11.6km/h 7.2mph /  11.6km/h 89% 0in /  0.0mm
07:48 40.6 °F /  4.8 °C 37.9 °F /  3.3 °C 29.9in /  1012.1hPa WSW 5.4mph /  8.7km/h 7.2mph /  11.6km/h 90% 0in /  0.0mm
07:53 40.8 °F /  4.9 °C 38.1 °F /  3.4 °C 29.9in /  1012.1hPa SW 4.5mph /  7.2km/h 6.5mph /  10.5km/h 90% 0in /  0.0mm
07:58 40.8 °F /  4.9 °C 38.1 °F /  3.4 °C 29.9in /  1012.1hPa WSW 5.6mph /  9.0km/h 8.1mph /  13.0km/h 90% 0in /  0.0mm
08:03 40.8 °F /  4.9 °C 38.1 °F /  3.4 °C 29.9in /  1012.1hPa WSW 5.4mph /  8.7km/h 9.6mph /  15.4km/h 90% 0in /  0.0mm
08:08 41 °F /  5.0 °C 38.3 °F /  3.5 °C 29.9in /  1012.1hPa WSW 7.2mph /  11.6km/h 9.6mph /  15.4km/h 90% 0in /  0.0mm
08:13 41.2 °F /  5.1 °C 38.5 °F /  3.6 °C 29.9in /  1012.1hPa WSW 5.6mph /  9.0km/h 8.7mph /  14.0km/h 90% 0in /  0.0mm
08:18 41.2 °F /  5.1 °C 38.5 °F /  3.6 °C 29.9in /  1012.1hPa WSW 7.6mph /  12.2km/h 8.7mph /  14.0km/h 90% 0in /  0.0mm
08:23 41.4 °F /  5.2 °C 38.7 °F /  3.7 °C 29.9in /  1012.1hPa WSW 7.4mph /  11.9km/h 8.5mph /  13.7km/h 90% 0in /  0.0mm
08:28 41.5 °F /  5.3 °C 38.5 °F /  3.6 °C 29.9in /  1012.1hPa WSW 6.5mph /  10.5km/h 8.5mph /  13.7km/h 89% 0in /  0.0mm
08:33 41.5 °F /  5.3 °C 38.5 °F /  3.6 °C 29.9in /  1012.1hPa SW 5.8mph /  9.3km/h 10.1mph /  16.3km/h 89% 0in /  0.0mm
08:38 41.5 °F /  5.3 °C 38.1 °F /  3.4 °C 29.9in /  1012.1hPa SW 7.6mph /  12.2km/h 10.1mph /  16.3km/h 88% 0in /  0.0mm
08:43 41.5 °F /  5.3 °C 38.1 °F /  3.4 °C 29.9in /  1012.1hPa WSW 12.1mph /  19.5km/h 13mph /  20.9km/h 88% 0in /  0.0mm
08:48 41.7 °F /  5.4 °C 38.1 °F /  3.4 °C 29.9in /  1012.1hPa WSW 11mph /  17.7km/h 13mph /  20.9km/h 87% 0in /  0.0mm
08:53 41.7 °F /  5.4 °C 38.1 °F /  3.4 °C 29.9in /  1011.1hPa WSW 7.8mph /  12.6km/h 13mph /  20.9km/h 87% 0in /  0.0mm
08:58 41.5 °F /  5.3 °C 37.9 °F /  3.3 °C 29.9in /  1011.1hPa WSW 8.7mph /  14.0km/h 13mph /  20.9km/h 87% 0in /  0.0mm
09:03 41.5 °F /  5.3 °C 37.9 °F /  3.3 °C 29.9in /  1011.1hPa WSW 10.3mph /  16.6km/h 13mph /  20.9km/h 87% 0in /  0.0mm
09:08 41.5 °F /  5.3 °C 37.6 °F /  3.1 °C 29.9in /  1012.1hPa WSW 7.4mph /  11.9km/h 13mph /  20.9km/h 86% 0in /  0.0mm
09:13 41.5 °F /  5.3 °C 37.6 °F /  3.1 °C 29.9in /  1012.1hPa WSW 8.1mph /  13.0km/h 12.5mph /  20.1km/h 86% 0in /  0.0mm
09:18 41.5 °F /  5.3 °C 37.6 °F /  3.1 °C 29.9in /  1012.1hPa WSW 6mph /  9.7km/h 12.3mph /  19.8km/h 86% 0in /  0.0mm
09:23 41.4 °F /  5.2 °C 37.6 °F /  3.1 °C 29.9in /  1011.1hPa WSW 5.4mph /  8.7km/h 8.1mph /  13.0km/h 86% 0in /  0.0mm
09:28 41.2 °F /  5.1 °C 37 °F /  2.8 °C 29.9in /  1011.1hPa WSW 5.8mph /  9.3km/h 6.5mph /  10.5km/h 85% 0in /  0.0mm
09:33 41 °F /  5.0 °C 37 °F /  2.8 °C 29.9in /  1011.1hPa WSW 5.8mph /  9.3km/h 6.5mph /  10.5km/h 86% 0in /  0.0mm
09:38 41 °F /  5.0 °C 37 °F /  2.8 °C 29.9in /  1012.1hPa WSW 6mph /  9.7km/h 7.2mph /  11.6km/h 86% 0in /  0.0mm
09:43 41 °F /  5.0 °C 37 °F /  2.8 °C 29.9in /  1012.1hPa WSW 6mph /  9.7km/h 7.4mph /  11.9km/h 86% 0in /  0.0mm
09:48 41.2 °F /  5.1 °C 37.2 °F /  2.9 °C 29.9in /  1012.1hPa WSW 5.4mph /  8.7km/h 7.4mph /  11.9km/h 86% 0in /  0.0mm
09:53 41.4 °F /  5.2 °C 37.8 °F /  3.2 °C 29.9in /  1012.1hPa WSW 5.4mph /  8.7km/h 7.4mph /  11.9km/h 87% 0in /  0.0mm
09:58 41.4 °F /  5.2 °C 37.8 °F /  3.2 °C 29.9in /  1012.1hPa WSW 4mph /  6.4km/h 7.2mph /  11.6km/h 87% 0in /  0.0mm
10:03 41.5 °F /  5.3 °C 37.9 °F /  3.3 °C 29.9in /  1012.1hPa SSW 5.8mph /  9.3km/h 6.5mph /  10.5km/h 87% 0in /  0.0mm
10:08 41.9 °F /  5.5 °C 38.3 °F /  3.5 °C 29.9in /  1011.1hPa SW 5.8mph /  9.3km/h 6.3mph /  10.1km/h 87% 0in /  0.0mm
10:13 42.1 °F /  5.6 °C 38.5 °F /  3.6 °C 29.9in /  1011.1hPa SSW 6mph /  9.7km/h 6.5mph /  10.5km/h 87% 0in /  0.0mm
10:18 42.4 °F /  5.8 °C 38.5 °F /  3.6 °C 29.9in /  1011.1hPa SSW 4.9mph /  7.9km/h 8.5mph /  13.7km/h 86% 0in /  0.0mm
10:23 42.6 °F /  5.9 °C 38.5 °F /  3.6 °C 29.9in /  1011.1hPa SSW 2.9mph /  4.7km/h 8.5mph /  13.7km/h 85% 0in /  0.0mm
10:28 42.8 °F /  6.0 °C 38.7 °F /  3.7 °C 29.9in /  1011.1hPa South 2.7mph /  4.3km/h 6.5mph /  10.5km/h 85% 0in /  0.0mm
10:33 42.8 °F /  6.0 °C 38.7 °F /  3.7 °C 29.9in /  1011.1hPa SSW 2.5mph /  4.0km/h 7.4mph /  11.9km/h 85% 0in /  0.0mm
10:38 42.8 °F /  6.0 °C 38.7 °F /  3.7 °C 29.9in /  1011.1hPa South 4.3mph /  6.9km/h 8.1mph /  13.0km/h 85% 0in /  0.0mm
10:43 43 °F /  6.1 °C 38.7 °F /  3.7 °C 29.9in /  1011.1hPa SSW 5.6mph /  9.0km/h 9.6mph /  15.4km/h 85% 0in /  0.0mm
10:48 43.2 °F /  6.2 °C 38.8 °F /  3.8 °C 29.9in /  1011.1hPa South 6.3mph /  10.1km/h 9.6mph /  15.4km/h 85% 0in /  0.0mm
10:53 43.2 °F /  6.2 °C 38.8 °F /  3.8 °C 29.9in /  1011.1hPa SSW 3.4mph /  5.5km/h 8.7mph /  14.0km/h 85% 0in /  0.0mm
10:58 43.3 °F /  6.3 °C 39.4 °F /  4.1 °C 29.9in /  1011.1hPa WSW 8.5mph /  13.7km/h 10.5mph /  16.9km/h 86% 0in /  0.0mm
11:03 43.3 °F /  6.3 °C 39.4 °F /  4.1 °C 29.9in /  1011.1hPa SSW 7.4mph /  11.9km/h 13mph /  20.9km/h 86% 0in /  0.0mm
11:08 43.5 °F /  6.4 °C 39.9 °F /  4.4 °C 29.8in /  1010.0hPa SSW 6mph /  9.7km/h 13mph /  20.9km/h 87% 0in /  0.0mm
11:14 43.9 °F /  6.6 °C 40.3 °F /  4.6 °C 29.8in /  1010.0hPa SSW 6.3mph /  10.1km/h 10.1mph /  16.3km/h 87% 0in /  0.0mm
11:19 43.9 °F /  6.6 °C 40.3 °F /  4.6 °C 29.8in /  1010.0hPa SSW 7.8mph /  12.6km/h 10.3mph /  16.6km/h 87% 0in /  0.0mm
11:24 44.1 °F /  6.7 °C 40.6 °F /  4.8 °C 29.8in /  1010.0hPa South 5.4mph /  8.7km/h 10.3mph /  16.6km/h 88% 0in /  0.0mm
11:29 44.2 °F /  6.8 °C 40.8 °F /  4.9 °C 29.8in /  1010.0hPa WSW 5.6mph /  9.0km/h 8.7mph /  14.0km/h 88% 0in /  0.0mm
11:34 44.2 °F /  6.8 °C 40.8 °F /  4.9 °C 29.8in /  1010.0hPa South 7.8mph /  12.6km/h 10.7mph /  17.2km/h 88% 0in /  0.0mm
11:39 44.2 °F /  6.8 °C 40.8 °F /  4.9 °C 29.8in /  1009.0hPa SW 8.1mph /  13.0km/h 10.7mph /  17.2km/h 88% 0in /  0.0mm
11:44 44.2 °F /  6.8 °C 40.8 °F /  4.9 °C 29.8in /  1009.0hPa WSW 4.9mph /  7.9km/h 10.3mph /  16.6km/h 88% 0in /  0.0mm
11:49 44.2 °F /  6.8 °C 41.2 °F /  5.1 °C 29.8in /  1009.0hPa SSW 10.3mph /  16.6km/h 13mph /  20.9km/h 89% 0in /  0.0mm
11:54 44.2 °F /  6.8 °C 41.2 °F /  5.1 °C 29.8in /  1009.0hPa SSW 7.4mph /  11.9km/h 13mph /  20.9km/h 89% 0in /  0.0mm
11:59 44.2 °F /  6.8 °C 41.4 °F /  5.2 °C 29.8in /  1009.0hPa WSW 5.6mph /  9.0km/h 11mph /  17.7km/h 90% 0in /  0.0mm
12:04 44.2 °F /  6.8 °C 41.4 °F /  5.2 °C 29.8in /  1009.0hPa WSW 6.5mph /  10.5km/h 11mph /  17.7km/h 90% 0in /  0.0mm
12:09 44.2 °F /  6.8 °C 41.7 °F /  5.4 °C 29.8in /  1009.0hPa SSW 6.5mph /  10.5km/h 13mph /  20.9km/h 91% 0in /  0.0mm
12:14 44.2 °F /  6.8 °C 41.7 °F /  5.4 °C 29.8in /  1009.0hPa SW 5.4mph /  8.7km/h 13mph /  20.9km/h 91% 0in /  0.0mm
12:19 44.1 °F /  6.7 °C 41.7 °F /  5.4 °C 29.8in /  1009.0hPa SSW 8.1mph /  13.0km/h 12.1mph /  19.5km/h 92% 0in /  0.0mm
12:24 44.1 °F /  6.7 °C 41.7 °F /  5.4 °C 29.8in /  1009.0hPa SSW 7.2mph /  11.6km/h 9.6mph /  15.4km/h 92% 0in /  0.0mm
12:29 43.9 °F /  6.6 °C 41.9 °F /  5.5 °C 29.8in /  1009.0hPa SW 6.3mph /  10.1km/h 9.6mph /  15.4km/h 93% 0in /  0.0mm
12:34 44.1 °F /  6.7 °C 42.1 °F /  5.6 °C 29.8in /  1009.0hPa SSW 4.3mph /  6.9km/h 8.1mph /  13.0km/h 93% 0in /  0.0mm
12:39 44.2 °F /  6.8 °C 42.6 °F /  5.9 °C 29.8in /  1008.0hPa SSW 2mph /  3.2km/h 8.1mph /  13.0km/h 94% 0in /  0.0mm
12:44 44.2 °F /  6.8 °C 42.6 °F /  5.9 °C 29.8in /  1008.0hPa South 2.9mph /  4.7km/h 6.3mph /  10.1km/h 94% 0in /  0.0mm
12:49 44.2 °F /  6.8 °C 42.6 °F /  5.9 °C 29.8in /  1008.0hPa South 4.3mph /  6.9km/h 7.8mph /  12.6km/h 94% 0in /  0.0mm
12:54 44.2 °F /  6.8 °C 42.6 °F /  5.9 °C 29.7in /  1007.0hPa SSW 3.1mph /  5.0km/h 7.8mph /  12.6km/h 94% 0in /  0.0mm
12:59 44.4 °F /  6.9 °C 43 °F /  6.1 °C 29.7in /  1007.0hPa South 3.8mph /  6.1km/h 7.6mph /  12.2km/h 94% 0in /  0.0mm
13:04 44.8 °F /  7.1 °C 43.2 °F /  6.2 °C 29.7in /  1007.0hPa South 4.9mph /  7.9km/h 8.1mph /  13.0km/h 94% 0in /  0.0mm
13:09 44.8 °F /  7.1 °C 43.2 °F /  6.2 °C 29.7in /  1007.0hPa South 5.6mph /  9.0km/h 8.1mph /  13.0km/h 94% 0in /  0.0mm
13:14 44.8 °F /  7.1 °C 43.2 °F /  6.2 °C 29.7in /  1007.0hPa South 2.5mph /  4.0km/h 10.3mph /  16.6km/h 94% 0in /  0.0mm
13:19 44.8 °F /  7.1 °C 43.2 °F /  6.2 °C 29.7in /  1007.0hPa SSW 6.3mph /  10.1km/h 10.3mph /  16.6km/h 94% 0in /  0.0mm
13:24 44.8 °F /  7.1 °C 43.2 °F /  6.2 °C 29.7in /  1006.0hPa SSW 7.8mph /  12.6km/h 7.8mph /  12.6km/h 94% 0in /  0.0mm
13:29 44.8 °F /  7.1 °C 43.2 °F /  6.2 °C 29.7in /  1006.0hPa SW 4mph /  6.4km/h 7.8mph /  12.6km/h 94% 0in /  0.0mm
13:34 45 °F /  7.2 °C 43.3 °F /  6.3 °C 29.7in /  1006.0hPa SSW 5.6mph /  9.0km/h 9.8mph /  15.8km/h 94% 0in /  0.0mm
13:39 45.1 °F /  7.3 °C 43.3 °F /  6.3 °C 29.7in /  1006.0hPa SSW 1.3mph /  2.1km/h 11mph /  17.7km/h 94% 0in /  0.0mm
13:44 45.1 °F /  7.3 °C 43.3 °F /  6.3 °C 29.7in /  1006.0hPa SSE 6.3mph /  10.1km/h 11mph /  17.7km/h 94% 0in /  0.0mm
13:49 45.1 °F /  7.3 °C 43.3 °F /  6.3 °C 29.7in /  1006.0hPa SW 3.6mph /  5.8km/h 10.1mph /  16.3km/h 94% 0in /  0.0mm
13:54 45.1 °F /  7.3 °C 43.3 °F /  6.3 °C 29.7in /  1005.0hPa WSW 7.4mph /  11.9km/h 10.1mph /  16.3km/h 94% 0in /  0.0mm
13:59 45.1 °F /  7.3 °C 43.3 °F /  6.3 °C 29.7in /  1005.0hPa South 3.8mph /  6.1km/h 10.3mph /  16.6km/h 94% 0in /  0.0mm
14:04 45.1 °F /  7.3 °C 43.3 °F /  6.3 °C 29.7in /  1005.0hPa South 7.8mph /  12.6km/h 10.3mph /  16.6km/h 94% 0in /  0.0mm
14:09 45 °F /  7.2 °C 43 °F /  6.1 °C 29.7in /  1005.0hPa South 6.5mph /  10.5km/h 10.3mph /  16.6km/h 93% 0in /  0.0mm
14:14 45 °F /  7.2 °C 43 °F /  6.1 °C 29.7in /  1005.0hPa SW 5.8mph /  9.3km/h 12.3mph /  19.8km/h 93% 0in /  0.0mm
14:19 45 °F /  7.2 °C 43 °F /  6.1 °C 29.7in /  1005.0hPa Calm   12.3mph /  19.8km/h 93% 0in /  0.0mm
14:24 44.8 °F /  7.1 °C 42.8 °F /  6.0 °C 29.6in /  1003.9hPa SSW 6.3mph /  10.1km/h 10.3mph /  16.6km/h 93% 0in /  0.0mm
14:29 44.8 °F /  7.1 °C 43.2 °F /  6.2 °C 29.6in /  1003.9hPa SSW 7.4mph /  11.9km/h 10.3mph /  16.6km/h 94% 0in /  0.0mm
14:34 44.4 °F /  6.9 °C 42.6 °F /  5.9 °C 29.6in /  1003.9hPa SSW 8.7mph /  14.0km/h 13.6mph /  21.9km/h 93% 0in /  0.0mm
14:39 44.4 °F /  6.9 °C 42.6 °F /  5.9 °C 29.6in /  1001.9hPa SW 5.4mph /  8.7km/h 13.6mph /  21.9km/h 93% 0in /  0.0mm
14:44 44.4 °F /  6.9 °C 42.6 °F /  5.9 °C 29.6in /  1001.9hPa SW 5.8mph /  9.3km/h 12.5mph /  20.1km/h 93% 0in /  0.0mm
14:49 44.4 °F /  6.9 °C 42.6 °F /  5.9 °C 29.6in /  1001.9hPa SSW 6.5mph /  10.5km/h 11.9mph /  19.1km/h 93% 0in /  0.0mm
14:54 44.2 °F /  6.8 °C 42.4 °F /  5.8 °C 29.6in /  1002.9hPa SSW 6.3mph /  10.1km/h 12.5mph /  20.1km/h 93% 0in /  0.0mm
14:59 44.2 °F /  6.8 °C 42.4 °F /  5.8 °C 29.6in /  1002.9hPa SSW 7.4mph /  11.9km/h 12.5mph /  20.1km/h 93% 0in /  0.0mm
15:04 44.2 °F /  6.8 °C 42.6 °F /  5.9 °C 29.6in /  1002.9hPa SSW 7.4mph /  11.9km/h 11.2mph /  18.0km/h 94% 0in /  0.0mm
15:09 44.2 °F /  6.8 °C 42.6 °F /  5.9 °C 29.6in /  1001.9hPa SSW 9.8mph /  15.8km/h 11mph /  17.7km/h 94% 0in /  0.0mm
15:14 44.2 °F /  6.8 °C 42.6 °F /  5.9 °C 29.6in /  1001.9hPa SW 10.1mph /  16.3km/h 12.8mph /  20.6km/h 94% 0in /  0.0mm
15:20 44.2 °F /  6.8 °C 42.6 °F /  5.9 °C 29.6in /  1001.9hPa WSW 5.6mph /  9.0km/h 12.8mph /  20.6km/h 94% 0in /  0.0mm
15:25 44.2 °F /  6.8 °C 42.6 °F /  5.9 °C 29.6in /  1000.9hPa SSW 8.5mph /  13.7km/h 11mph /  17.7km/h 94% 0in /  0.0mm
15:30 44.2 °F /  6.8 °C 42.6 °F /  5.9 °C 29.6in /  1000.9hPa SSW 4mph /  6.4km/h 9.4mph /  15.1km/h 94% 0in /  0.0mm
15:35 44.2 °F /  6.8 °C 42.6 °F /  5.9 °C 29.6in /  1000.9hPa SW 8.5mph /  13.7km/h 10.1mph /  16.3km/h 94% 0in /  0.0mm
15:40 44.2 °F /  6.8 °C 43 °F /  6.1 °C 29.6in /  1000.9hPa SSW 10.1mph /  16.3km/h 16.3mph /  26.2km/h 95% 0in /  0.0mm
15:45 44.2 °F /  6.8 °C 43 °F /  6.1 °C 29.6in /  1000.9hPa South 7.8mph /  12.6km/h 16.3mph /  26.2km/h 95% 0in /  0.0mm
15:50 44.2 °F /  6.8 °C 43 °F /  6.1 °C 29.6in /  1000.9hPa South 5.8mph /  9.3km/h 10.7mph /  17.2km/h 95% 0in /  0.0mm
15:55 44.2 °F /  6.8 °C 43 °F /  6.1 °C 29.5in /  999.9hPa SSW 4mph /  6.4km/h 8.7mph /  14.0km/h 95% 0in /  0.0mm
16:00 44.2 °F /  6.8 °C 43 °F /  6.1 °C 29.5in /  999.9hPa South 3.8mph /  6.1km/h 9.8mph /  15.8km/h 95% 0in /  0.0mm
16:05 44.2 °F /  6.8 °C 43 °F /  6.1 °C 29.5in /  999.9hPa South 6mph /  9.7km/h 9.8mph /  15.8km/h 95% 0in /  0.0mm
16:10 44.2 °F /  6.8 °C 43 °F /  6.1 °C 29.5in /  998.9hPa South 5.6mph /  9.0km/h 10.7mph /  17.2km/h 95% 0in /  0.0mm
16:15 44.2 °F /  6.8 °C 42.8 °F /  6.0 °C 29.5in /  998.9hPa SW 8.1mph /  13.0km/h 10.7mph /  17.2km/h 95% 0in /  0.0mm
16:20 44.2 °F /  6.8 °C 42.8 °F /  6.0 °C 29.5in /  998.9hPa SSW 8.1mph /  13.0km/h 10.5mph /  16.9km/h 95% 0in /  0.0mm
16:25 44.2 °F /  6.8 °C 42.8 °F /  6.0 °C 29.5in /  998.9hPa SSW 8.5mph /  13.7km/h 12.3mph /  19.8km/h 95% 0in /  0.0mm
16:30 44.2 °F /  6.8 °C 42.8 °F /  6.0 °C 29.5in /  998.9hPa South 6mph /  9.7km/h 12.3mph /  19.8km/h 95% 0in /  0.0mm
16:35 44.2 °F /  6.8 °C 42.8 °F /  6.0 °C 29.5in /  998.9hPa SSW 8.7mph /  14.0km/h 10.1mph /  16.3km/h 95% 0in /  0.0mm
16:40 44.2 °F /  6.8 °C 42.8 °F /  6.0 °C 29.5in /  997.9hPa South 5.6mph /  9.0km/h 11mph /  17.7km/h 95% 0in /  0.0mm
16:45 44.2 °F /  6.8 °C 42.8 °F /  6.0 °C 29.5in /  997.9hPa SSW 4.3mph /  6.9km/h 13mph /  20.9km/h 95% 0.01in /  0.3mm
16:50 44.1 °F /  6.7 °C 42.6 °F /  5.9 °C 29.5in /  997.9hPa South 6.3mph /  10.1km/h 13mph /  20.9km/h 95% 0.01in /  0.3mm
16:55 44.1 °F /  6.7 °C 42.6 °F /  5.9 °C 29.4in /  996.8hPa South 8.1mph /  13.0km/h 11mph /  17.7km/h 95% 0.01in /  0.3mm
17:00 44.1 °F /  6.7 °C 42.6 °F /  5.9 °C 29.4in /  996.8hPa South 7.2mph /  11.6km/h 10.7mph /  17.2km/h 95% 0.01in /  0.3mm
17:05 44.1 °F /  6.7 °C 42.6 °F /  5.9 °C 29.4in /  996.8hPa SSW 6.5mph /  10.5km/h 9.4mph /  15.1km/h 95% 0.01in /  0.3mm
17:10 44.1 °F /  6.7 °C 42.6 °F /  5.9 °C 29.4in /  996.8hPa South 5.6mph /  9.0km/h 8.5mph /  13.7km/h 95% 0.01in /  0.3mm
17:15 43.9 °F /  6.6 °C 42.4 °F /  5.8 °C 29.4in /  996.8hPa South 5.6mph /  9.0km/h 8.1mph /  13.0km/h 95% 0.02in /  0.5mm
17:20 43.9 °F /  6.6 °C 42.4 °F /  5.8 °C 29.4in /  996.8hPa SSW 7.2mph /  11.6km/h 9.8mph /  15.8km/h 95% 0.02in /  0.5mm
17:25 43.5 °F /  6.4 °C 42.3 °F /  5.7 °C 29.4in /  996.2hPa South 6.3mph /  10.1km/h 10.3mph /  16.6km/h 95% 0.04in /  1.0mm
17:30 43.5 °F /  6.4 °C 42.6 °F /  5.9 °C 29.4in /  996.2hPa South 7.2mph /  11.6km/h 10.3mph /  16.6km/h 96% 0.04in /  1.0mm
17:35 43.5 °F /  6.4 °C 42.4 °F /  5.8 °C 29.4in /  996.2hPa SSE 4mph /  6.4km/h 8.5mph /  13.7km/h 96% 0.04in /  1.0mm
17:40 43.5 °F /  6.4 °C 42.4 °F /  5.8 °C 29.4in /  995.1hPa South 4.3mph /  6.9km/h 9.6mph /  15.4km/h 96% 0.06in /  1.5mm
17:45 43.5 °F /  6.4 °C 42.4 °F /  5.8 °C 29.4in /  995.1hPa SSW 4.7mph /  7.6km/h 9.6mph /  15.4km/h 96% 0.06in /  1.5mm
17:50 43.5 °F /  6.4 °C 42.4 °F /  5.8 °C 29.4in /  995.1hPa South 10.1mph /  16.3km/h 10.5mph /  16.9km/h 96% 0.07in /  1.8mm
17:55 43.3 °F /  6.3 °C 42.3 °F /  5.7 °C 29.4in /  995.1hPa South 10.7mph /  17.2km/h 10.7mph /  17.2km/h 96% 0.08in /  2.0mm
18:00 43.3 °F /  6.3 °C 42.3 °F /  5.7 °C 29.4in /  995.1hPa SSW 7.8mph /  12.6km/h 14.1mph /  22.7km/h 96% 0.09in /  2.3mm
18:05 43.3 °F /  6.3 °C 42.3 °F /  5.7 °C 29.4in /  995.1hPa SSW 10.7mph /  17.2km/h 14.1mph /  22.7km/h 96% 0.09in /  2.3mm
18:10 43.2 °F /  6.2 °C 42.1 °F /  5.6 °C 29.4in /  994.1hPa SSW 3.6mph /  5.8km/h 11.4mph /  18.3km/h 96% 0.1in /  2.5mm
18:15 43.2 °F /  6.2 °C 42.1 °F /  5.6 °C 29.4in /  994.1hPa SSW 6.5mph /  10.5km/h 11.4mph /  18.3km/h 96% 0.11in /  2.8mm
18:20 43.2 °F /  6.2 °C 42.1 °F /  5.6 °C 29.4in /  994.1hPa WSW 9.6mph /  15.4km/h 10.7mph /  17.2km/h 96% 0.12in /  3.0mm
18:25 43.2 °F /  6.2 °C 42.1 °F /  5.6 °C 29.3in /  993.1hPa South 6.5mph /  10.5km/h 16.3mph /  26.2km/h 96% 0.11in /  2.8mm
18:30 43 °F /  6.1 °C 41.9 °F /  5.5 °C 29.3in /  993.1hPa SSW 8.5mph /  13.7km/h 16.3mph /  26.2km/h 96% 0.11in /  2.8mm
18:35 42.8 °F /  6.0 °C 41.7 °F /  5.4 °C 29.3in /  993.1hPa South 7.6mph /  12.2km/h 10.5mph /  16.9km/h 96% 0.12in /  3.0mm
18:40 42.6 °F /  5.9 °C 41.5 °F /  5.3 °C 29.3in /  992.1hPa SSW 3.8mph /  6.1km/h 10.5mph /  16.9km/h 96% 0.11in /  2.8mm
18:45 42.6 °F /  5.9 °C 41.5 °F /  5.3 °C 29.3in /  992.1hPa SSW 4.9mph /  7.9km/h 10.1mph /  16.3km/h 96% 0.11in /  2.8mm
18:50 42.4 °F /  5.8 °C 41.4 °F /  5.2 °C 29.3in /  992.1hPa South 4.9mph /  7.9km/h 10.5mph /  16.9km/h 96% 0.1in /  2.5mm
18:55 42.4 °F /  5.8 °C 41.4 °F /  5.2 °C 29.3in /  991.1hPa SSW 6mph /  9.7km/h 10.5mph /  16.9km/h 96% 0.12in /  3.0mm
19:00 42.4 °F /  5.8 °C 41.4 °F /  5.2 °C 29.3in /  991.1hPa South 7.2mph /  11.6km/h 9.4mph /  15.1km/h 96% 0.11in /  2.8mm
19:05 42.4 °F /  5.8 °C 41.4 °F /  5.2 °C 29.3in /  991.1hPa South 8.5mph /  13.7km/h 10.1mph /  16.3km/h 96% 0.13in /  3.3mm
19:10 42.3 °F /  5.7 °C 41.2 °F /  5.1 °C 29.2in /  990.1hPa SSW 10.7mph /  17.2km/h 15.2mph /  24.5km/h 96% 0.13in /  3.3mm
19:15 42.3 °F /  5.7 °C 41.2 °F /  5.1 °C 29.2in /  990.1hPa SSW 10.7mph /  17.2km/h 15.2mph /  24.5km/h 96% 0.12in /  3.0mm
19:20 42.1 °F /  5.6 °C 41 °F /  5.0 °C 29.2in /  990.1hPa SSW 5.8mph /  9.3km/h 14.5mph /  23.3km/h 96% 0.12in /  3.0mm
19:25 41.9 °F /  5.5 °C 40.8 °F /  4.9 °C 29.2in /  989.1hPa South 5.4mph /  8.7km/h 12.8mph /  20.6km/h 96% 0.14in /  3.6mm
19:30 41.9 °F /  5.5 °C 40.8 °F /  4.9 °C 29.2in /  989.1hPa SSW 12.5mph /  20.1km/h 19.5mph /  31.4km/h 96% 0.14in /  3.6mm
19:35 41.5 °F /  5.3 °C 40.5 °F /  4.7 °C 29.2in /  989.1hPa South 11.9mph /  19.1km/h 19.5mph /  31.4km/h 96% 0.16in /  4.1mm
19:40 41.5 °F /  5.3 °C 40.5 °F /  4.7 °C 29.2in /  988.0hPa South 8.5mph /  13.7km/h 14.3mph /  23.0km/h 96% 0.16in /  4.1mm
19:45 41.5 °F /  5.3 °C 40.5 °F /  4.7 °C 29.2in /  988.0hPa South 8.5mph /  13.7km/h 14.3mph /  23.0km/h 96% 0.16in /  4.1mm
19:50 41.5 °F /  5.3 °C 40.5 °F /  4.7 °C 29.2in /  988.0hPa South 6.5mph /  10.5km/h 12.1mph /  19.5km/h 96% 0.17in /  4.3mm
19:55 41.4 °F /  5.2 °C 40.3 °F /  4.6 °C 29.1in /  987.0hPa South 6mph /  9.7km/h 13mph /  20.9km/h 96% 0.16in /  4.1mm
20:00 41.4 °F /  5.2 °C 40.3 °F /  4.6 °C 29.1in /  987.0hPa SSE 7.8mph /  12.6km/h 13mph /  20.9km/h 96% 0.17in /  4.3mm
20:05 41.4 °F /  5.2 °C 40.3 °F /  4.6 °C 29.1in /  987.0hPa SSE 5.6mph /  9.0km/h 12.3mph /  19.8km/h 96% 0.17in /  4.3mm
20:11 41.2 °F /  5.1 °C 40.1 °F /  4.5 °C 29.1in /  986.0hPa SSE 7.8mph /  12.6km/h 12.1mph /  19.5km/h 96% 0.17in /  4.3mm
20:16 41.2 °F /  5.1 °C 40.1 °F /  4.5 °C 29.1in /  986.0hPa SE 4.5mph /  7.2km/h 11mph /  17.7km/h 96% 0.15in /  3.8mm
20:21 41.2 °F /  5.1 °C 40.1 °F /  4.5 °C 29.1in /  986.0hPa SE 4.9mph /  7.9km/h 11mph /  17.7km/h 96% 0.16in /  4.1mm
20:26 41.2 °F /  5.1 °C 40.1 °F /  4.5 °C 29.1in /  985.0hPa SE 7.8mph /  12.6km/h 8.1mph /  13.0km/h 96% 0.15in /  3.8mm
20:30 41.2 °F /  5.1 °C 40.1 °F /  4.5 °C 29.1in /  985.0hPa ESE 3.4mph /  5.5km/h 7.8mph /  12.6km/h 96% 0.14in /  3.6mm
20:36 41.2 °F /  5.1 °C 40.5 °F /  4.7 °C 29.1in /  985.0hPa East 6.5mph /  10.5km/h 7.8mph /  12.6km/h 97% 0.11in /  2.8mm
20:41 41.2 °F /  5.1 °C 40.5 °F /  4.7 °C 29in /  983.0hPa East 5.8mph /  9.3km/h 8.5mph /  13.7km/h 97% 0.1in /  2.5mm
20:46 41.2 °F /  5.1 °C 40.5 °F /  4.7 °C 29in /  983.0hPa SE 7.6mph /  12.2km/h 10.1mph /  16.3km/h 97% 0.11in /  2.8mm
20:51 41.4 °F /  5.2 °C 40.6 °F /  4.8 °C 29in /  983.0hPa SSE 3.8mph /  6.1km/h 10.1mph /  16.3km/h 97% 0.09in /  2.3mm
20:56 41.4 °F /  5.2 °C 40.6 °F /  4.8 °C 29in /  983.0hPa SE 4.3mph /  6.9km/h 8.7mph /  14.0km/h 97% 0.08in /  2.0mm
21:01 41.5 °F /  5.3 °C 40.6 °F /  4.8 °C 29in /  983.0hPa SE 2.5mph /  4.0km/h 8.7mph /  14.0km/h 97% 0.06in /  1.5mm
21:06 41.5 °F /  5.3 °C 40.6 °F /  4.8 °C 29in /  983.0hPa SE 4.3mph /  6.9km/h 6.5mph /  10.5km/h 97% 0.05in /  1.3mm
21:11 41.7 °F /  5.4 °C 40.8 °F /  4.9 °C 29in /  981.9hPa SSE 1.6mph /  2.6km/h 8.1mph /  13.0km/h 97% 0.04in /  1.0mm
21:16 41.7 °F /  5.4 °C 40.8 °F /  4.9 °C 29in /  981.9hPa SE 3.1mph /  5.0km/h 8.1mph /  13.0km/h 97% 0.04in /  1.0mm
21:21 41.9 °F /  5.5 °C 41.2 °F /  5.1 °C 29in /  981.9hPa SE 3.4mph /  5.5km/h 5.8mph /  9.3km/h 97% 0.03in /  0.8mm
21:26 41.9 °F /  5.5 °C 41.2 °F /  5.1 °C 28.9in /  979.9hPa ESE 3.4mph /  5.5km/h 4.9mph /  7.9km/h 97% 0.01in /  0.3mm
21:31 41.9 °F /  5.5 °C 41.2 °F /  5.1 °C 28.9in /  979.9hPa East 3.1mph /  5.0km/h 4.3mph /  6.9km/h 97% 0.03in /  0.8mm
21:36 41.9 °F /  5.5 °C 41.2 °F /  5.1 °C 28.9in /  979.9hPa Calm   3.8mph /  6.1km/h 97% 0.04in /  1.0mm
21:41 41.9 °F /  5.5 °C 41.2 °F /  5.1 °C 29in /  981.9hPa NE 3.4mph /  5.5km/h 3.8mph /  6.1km/h 97% 0.05in /  1.3mm
21:46 41.9 °F /  5.5 °C 41.2 °F /  5.1 °C 29in /  981.9hPa NNE 2.9mph /  4.7km/h 4.9mph /  7.9km/h 97% 0.04in /  1.0mm
21:51 42.1 °F /  5.6 °C 41.4 °F /  5.2 °C 29in /  981.9hPa North 14.5mph /  23.3km/h 14.5mph /  23.3km/h 97% 0.04in /  1.0mm
21:56 40.1 °F /  4.5 °C 39.4 °F /  4.1 °C 29in /  980.9hPa North 11mph /  17.7km/h 19.9mph /  32.0km/h 97% 0.04in /  1.0mm
22:01 38.5 °F /  3.6 °C 37.2 °F /  2.9 °C 29in /  980.9hPa NNW 12.5mph /  20.1km/h 21.5mph /  34.6km/h 96% 0.08in /  2.0mm
22:06 37.2 °F /  2.9 °C 35.8 °F /  2.1 °C 29in /  980.9hPa North 8.5mph /  13.7km/h 22.1mph /  35.6km/h 94% 0.08in /  2.0mm
22:11 36.9 °F /  2.7 °C 35.4 °F /  1.9 °C 29in /  980.9hPa NNW 10.3mph /  16.6km/h 22.1mph /  35.6km/h 95% 0.08in /  2.0mm
22:16 36.1 °F /  2.3 °C 34.9 °F /  1.6 °C 29in /  980.9hPa NNW 10.7mph /  17.2km/h 20.1mph /  32.3km/h 95% 0.08in /  2.0mm
22:21 35.4 °F /  1.9 °C 34.2 °F /  1.2 °C 29in /  980.9hPa NNW 17.9mph /  28.8km/h 19.5mph /  31.4km/h 95% 0.08in /  2.0mm
22:26 34.9 °F /  1.6 °C 33.4 °F /  0.8 °C 29in /  981.9hPa NNW 8.7mph /  14.0km/h 17.9mph /  28.8km/h 95% 0.07in /  1.8mm
22:31 34.5 °F /  1.4 °C 33.4 °F /  0.8 °C 29in /  981.9hPa North 8.7mph /  14.0km/h 14.1mph /  22.7km/h 96% 0.07in /  1.8mm
22:36 34.3 °F /  1.3 °C 33.4 °F /  0.8 °C 29in /  981.9hPa North 8.7mph /  14.0km/h 10.3mph /  16.6km/h 97% 0.06in /  1.5mm
22:41 34.3 °F /  1.3 °C 33.4 °F /  0.8 °C 29in /  983.0hPa North 10.7mph /  17.2km/h 10.7mph /  17.2km/h 97% 0.05in /  1.3mm
22:46 34.2 °F /  1.2 °C 33.4 °F /  0.8 °C 29in /  983.0hPa North 10.7mph /  17.2km/h 10.7mph /  17.2km/h 97% 0.04in /  1.0mm
22:51 34.3 °F /  1.3 °C 33.8 °F /  1.0 °C 29in /  983.0hPa North 10.7mph /  17.2km/h 10.7mph /  17.2km/h 98% 0.04in /  1.0mm
22:56 34.5 °F /  1.4 °C 34 °F /  1.1 °C 29.1in /  984.0hPa North 10.7mph /  17.2km/h 10.7mph /  17.2km/h 98% 0.04in /  1.0mm
23:01 34.5 °F /  1.4 °C 34.2 °F /  1.2 °C 29.1in /  984.0hPa North 10.7mph /  17.2km/h 10.7mph /  17.2km/h 98% 0in /  0.0mm
23:06 34.9 °F /  1.6 °C 34.3 °F /  1.3 °C 29.1in /  984.0hPa North 10.7mph /  17.2km/h 10.7mph /  17.2km/h 98% 0in /  0.0mm
23:11 35.1 °F /  1.7 °C 34.5 °F /  1.4 °C 29.1in /  984.0hPa NNW 13mph /  20.9km/h 13mph /  20.9km/h 98% 0in /  0.0mm
23:16 35.4 °F /  1.9 °C 34.9 °F /  1.6 °C 29.1in /  984.0hPa WNW 10.7mph /  17.2km/h 19.9mph /  32.0km/h 98% 0in /  0.0mm
23:21 35.4 °F /  1.9 °C 34.9 °F /  1.6 °C 29.1in /  984.0hPa NNW 19.9mph /  32.0km/h 19.9mph /  32.0km/h 98% 0in /  0.0mm
23:26 35.4 °F /  1.9 °C 35.1 °F /  1.7 °C 29.1in /  987.0hPa WNW 16.1mph /  25.9km/h 22.8mph /  36.7km/h 98% 0in /  0.0mm
23:31 35.4 °F /  1.9 °C 35.1 °F /  1.7 °C 29.1in /  987.0hPa NNE 8.1mph /  13.0km/h 22.8mph /  36.7km/h 98% 0in /  0.0mm
23:36 35.8 °F /  2.1 °C 35.2 °F /  1.8 °C 29.1in /  987.0hPa North 18.8mph /  30.2km/h 26.6mph /  42.8km/h 98% 0in /  0.0mm
23:41 35.8 °F /  2.1 °C 35.2 °F /  1.8 °C 29.1in /  987.0hPa WNW 17.9mph /  28.8km/h 26.6mph /  42.8km/h 98% 0in /  0.0mm
23:46 35.8 °F /  2.1 °C 35.2 °F /  1.8 °C 29.1in /  987.0hPa NNW 7.8mph /  12.6km/h 22.1mph /  35.6km/h 98% 0in /  0.0mm
23:51 35.8 °F /  2.1 °C 35.2 °F /  1.8 °C 29.1in /  987.0hPa WNW 21.5mph /  34.6km/h 25.9mph /  41.7km/h 98% 0in /  0.0mm
23:57 35.8 °F /  2.1 °C 35.2 °F /  1.8 °C 29.2in /  989.1hPa North 8.5mph /  13.7km/h 25.9mph /  41.7km/h 98% 0in /  0.0mm
Données Historique de Météo Turbie

Mise a jour : 26/05/2018 06:20:15
Généré par Cumulus 1.9.4 (1099)